createdAt,value
2016-10-16T00:00:19.858Z,0
2016-10-16T00:01:19.894Z,0
2016-10-16T00:02:19.904Z,0
2016-10-16T00:03:19.933Z,0
2016-10-16T00:04:22.952Z,0
2016-10-16T00:05:19.934Z,0
2016-10-16T00:06:20.268Z,0
2016-10-16T00:07:19.963Z,0
2016-10-16T00:08:19.995Z,0
2016-10-16T00:09:20.002Z,0
2016-10-16T00:10:20.028Z,0
2016-10-16T00:11:20.044Z,0
2016-10-16T00:12:20.070Z,0
2016-10-16T00:13:20.087Z,0
2016-10-16T00:14:20.103Z,0
2016-10-16T00:15:20.129Z,0
2016-10-16T00:16:20.140Z,0
2016-10-16T00:17:20.165Z,0
2016-10-16T00:18:20.181Z,0
2016-10-16T00:19:20.197Z,0
2016-10-16T00:20:20.236Z,0
2016-10-16T00:21:20.239Z,0
2016-10-16T00:22:20.259Z,0
2016-10-16T00:23:20.280Z,0
2016-10-16T00:24:20.295Z,0
2016-10-16T00:25:20.330Z,0
2016-10-16T00:26:20.330Z,0
2016-10-16T00:27:20.349Z,0
2016-10-16T00:28:20.372Z,0
2016-10-16T00:29:20.398Z,0
2016-10-16T00:30:20.419Z,0
2016-10-16T00:31:20.429Z,0
2016-10-16T00:32:20.460Z,0
2016-10-16T00:33:20.465Z,0
2016-10-16T00:34:20.487Z,0
2016-10-16T00:35:20.505Z,0
2016-10-16T00:36:20.528Z,0
2016-10-16T00:37:20.545Z,0
2016-10-16T00:38:20.566Z,0
2016-10-16T00:39:20.582Z,0
2016-10-16T00:40:20.725Z,0
2016-10-16T00:41:20.739Z,0
2016-10-16T00:42:20.766Z,0
2016-10-16T00:43:20.748Z,0
2016-10-16T00:44:20.788Z,0
2016-10-16T00:45:20.811Z,0
2016-10-16T00:46:20.916Z,0
2016-10-16T00:47:20.874Z,0
2016-10-16T00:48:20.887Z,0
2016-10-16T00:49:20.927Z,0
2016-10-16T00:50:20.902Z,0
2016-10-16T00:51:21.050Z,0
2016-10-16T00:52:21.048Z,0
2016-10-16T00:53:21.052Z,0
2016-10-16T00:54:21.071Z,0
2016-10-16T00:55:21.072Z,0
2016-10-16T00:56:21.147Z,0
2016-10-16T00:57:21.092Z,0
2016-10-16T00:58:21.099Z,0
2016-10-16T00:59:21.042Z,0
2016-10-16T01:00:21.082Z,0
2016-10-16T01:01:21.102Z,0
2016-10-16T01:02:21.080Z,0
2016-10-16T01:03:21.100Z,0
2016-10-16T01:04:21.113Z,0
2016-10-16T01:05:21.098Z,0
2016-10-16T01:06:21.206Z,0
2016-10-16T01:07:21.123Z,0
2016-10-16T01:08:21.136Z,0
2016-10-16T01:09:21.154Z,0
2016-10-16T01:10:21.182Z,0
2016-10-16T01:11:21.242Z,0
2016-10-16T01:12:21.212Z,0
2016-10-16T01:13:21.227Z,0
2016-10-16T01:14:21.249Z,0
2016-10-16T01:15:21.298Z,0
2016-10-16T01:16:21.293Z,0
2016-10-16T01:17:21.314Z,0
2016-10-16T01:18:21.327Z,0
2016-10-16T01:19:21.346Z,0
2016-10-16T01:20:21.368Z,0
2016-10-16T01:21:21.390Z,0
2016-10-16T01:22:21.405Z,0
2016-10-16T01:23:21.415Z,0
2016-10-16T01:24:21.458Z,0
2016-10-16T01:25:21.460Z,0
2016-10-16T01:26:21.477Z,0
2016-10-16T01:27:21.494Z,0
2016-10-16T01:28:21.521Z,0
2016-10-16T01:29:21.534Z,0
2016-10-16T01:30:21.554Z,0
2016-10-16T01:31:21.581Z,0
2016-10-16T01:32:21.590Z,0
2016-10-16T01:33:21.619Z,0
2016-10-16T01:34:21.628Z,0
2016-10-16T01:35:21.665Z,0
2016-10-16T01:36:21.675Z,0
2016-10-16T01:37:21.695Z,0
2016-10-16T01:38:21.712Z,0
2016-10-16T01:39:21.733Z,0
2016-10-16T01:40:21.752Z,0
2016-10-16T01:41:21.758Z,0
2016-10-16T01:42:21.779Z,0
2016-10-16T01:43:21.813Z,0
2016-10-16T01:44:21.821Z,0
2016-10-16T01:45:21.840Z,0
2016-10-16T01:46:21.863Z,0
2016-10-16T01:47:21.883Z,0
2016-10-16T01:48:21.902Z,0
2016-10-16T01:49:21.919Z,0
2016-10-16T01:50:21.934Z,0
2016-10-16T01:51:21.963Z,0
2016-10-16T01:52:21.982Z,0
2016-10-16T01:53:21.999Z,0
2016-10-16T01:54:22.010Z,0
2016-10-16T01:55:22.035Z,0
2016-10-16T01:56:22.045Z,0
2016-10-16T01:57:22.070Z,0
2016-10-16T01:58:22.095Z,0
2016-10-16T01:59:22.110Z,0
2016-10-16T02:00:22.124Z,0
2016-10-16T02:01:22.156Z,0
2016-10-16T02:02:22.164Z,0
2016-10-16T02:03:22.190Z,0
2016-10-16T02:04:22.198Z,0
2016-10-16T02:05:22.223Z,0
2016-10-16T02:06:22.571Z,0
2016-10-16T02:07:22.271Z,0
2016-10-16T02:08:22.276Z,0
2016-10-16T02:09:22.305Z,0
2016-10-16T02:10:22.314Z,0
2016-10-16T02:11:22.340Z,0
2016-10-16T02:12:22.357Z,0
2016-10-16T02:13:22.378Z,0
2016-10-16T02:14:22.388Z,0
2016-10-16T02:15:22.427Z,0
2016-10-16T02:16:22.427Z,0
2016-10-16T02:17:22.446Z,0
2016-10-16T02:18:22.464Z,0
2016-10-16T02:19:22.501Z,0
2016-10-16T02:20:22.509Z,0
2016-10-16T02:21:22.529Z,0
2016-10-16T02:22:22.539Z,0
2016-10-16T02:23:22.568Z,0
2016-10-16T02:24:22.593Z,0
2016-10-16T02:25:22.604Z,0
2016-10-16T02:26:22.613Z,0
2016-10-16T02:27:22.647Z,0
2016-10-16T02:28:22.657Z,0
2016-10-16T02:29:22.673Z,0
2016-10-16T02:30:22.694Z,0
2016-10-16T02:31:22.759Z,0
2016-10-16T02:32:22.743Z,0
2016-10-16T02:33:22.754Z,0
2016-10-16T02:34:22.773Z,0
2016-10-16T02:35:22.793Z,0
2016-10-16T02:36:22.807Z,0
2016-10-16T02:37:22.822Z,0
2016-10-16T02:38:22.846Z,0
2016-10-16T02:39:22.872Z,0
2016-10-16T02:40:22.880Z,0
2016-10-16T02:41:22.904Z,0
2016-10-16T02:42:22.924Z,0
2016-10-16T02:43:22.944Z,0
2016-10-16T02:44:22.958Z,0
2016-10-16T02:45:22.977Z,0
2016-10-16T02:46:23.000Z,0
2016-10-16T02:47:23.009Z,0
2016-10-16T02:48:23.038Z,0
2016-10-16T02:49:23.055Z,0
2016-10-16T02:50:23.083Z,0
2016-10-16T02:51:23.091Z,0
2016-10-16T02:52:23.124Z,0
2016-10-16T02:53:23.129Z,0
2016-10-16T02:54:23.155Z,0
2016-10-16T02:55:23.170Z,0
2016-10-16T02:56:23.205Z,0
2016-10-16T02:57:23.220Z,0
2016-10-16T02:58:23.242Z,0
2016-10-16T02:59:23.245Z,0
2016-10-16T03:00:23.266Z,0
2016-10-16T03:01:23.288Z,0
2016-10-16T03:02:23.297Z,0
2016-10-16T03:03:23.330Z,0
2016-10-16T03:04:23.335Z,0
2016-10-16T03:05:23.353Z,0
2016-10-16T03:06:23.422Z,0
2016-10-16T03:07:23.403Z,0
2016-10-16T03:08:23.426Z,0
2016-10-16T03:09:23.526Z,0
2016-10-16T03:10:23.465Z,0
2016-10-16T03:11:23.489Z,0
2016-10-16T03:12:23.501Z,0
2016-10-16T03:13:23.507Z,0
2016-10-16T03:14:23.533Z,0
2016-10-16T03:15:23.553Z,0
2016-10-16T03:16:23.631Z,0
2016-10-16T03:17:23.592Z,0
2016-10-16T03:18:23.602Z,0
2016-10-16T03:19:23.626Z,0
2016-10-16T03:20:23.790Z,0
2016-10-16T03:21:23.784Z,0
2016-10-16T03:22:23.874Z,0
2016-10-16T03:23:23.778Z,0
2016-10-16T03:24:23.949Z,0
2016-10-16T03:25:23.891Z,0
2016-10-16T03:26:23.861Z,0
2016-10-16T03:27:23.890Z,0
2016-10-16T03:28:23.982Z,0
2016-10-16T03:29:23.874Z,0
2016-10-16T03:30:23.836Z,0
2016-10-16T03:31:23.857Z,0
2016-10-16T03:32:23.879Z,0
2016-10-16T03:33:23.886Z,0
2016-10-16T03:34:23.915Z,0
2016-10-16T03:35:23.935Z,0
2016-10-16T03:36:23.943Z,0
2016-10-16T03:37:23.976Z,0
2016-10-16T03:38:24.040Z,0
2016-10-16T03:39:24.003Z,0
2016-10-16T03:40:24.135Z,0
2016-10-16T03:41:24.144Z,0
2016-10-16T03:42:24.162Z,0
2016-10-16T03:43:24.161Z,0
2016-10-16T03:44:24.160Z,0
2016-10-16T03:45:24.176Z,0
2016-10-16T03:46:24.178Z,0
2016-10-16T03:47:24.496Z,0
2016-10-16T03:48:24.196Z,0
2016-10-16T03:49:24.329Z,0
2016-10-16T03:50:24.209Z,0
2016-10-16T03:51:24.347Z,0
2016-10-16T03:52:24.287Z,0
2016-10-16T03:53:24.279Z,0
2016-10-16T03:54:24.290Z,0
2016-10-16T03:55:24.408Z,0
2016-10-16T03:56:24.421Z,0
2016-10-16T03:57:24.430Z,0
2016-10-16T03:58:24.425Z,0
2016-10-16T03:59:24.473Z,0
2016-10-16T04:00:24.473Z,0
2016-10-16T04:01:24.484Z,0
2016-10-16T04:02:24.490Z,0
2016-10-16T04:03:24.521Z,0
2016-10-16T04:04:24.499Z,0
2016-10-16T04:05:24.495Z,0
2016-10-16T04:06:24.523Z,0
2016-10-16T04:07:24.527Z,0
2016-10-16T04:08:24.557Z,0
2016-10-16T04:09:24.576Z,0
2016-10-16T04:10:24.580Z,0
2016-10-16T04:11:24.606Z,0
2016-10-16T04:12:24.621Z,0
2016-10-16T04:13:24.654Z,0
2016-10-16T04:14:24.669Z,0
2016-10-16T04:15:24.675Z,0
2016-10-16T04:16:24.699Z,0
2016-10-16T04:17:24.712Z,0
2016-10-16T04:18:24.736Z,0
2016-10-16T04:19:24.752Z,0
2016-10-16T04:20:24.773Z,0
2016-10-16T04:21:24.794Z,0
2016-10-16T04:22:24.810Z,0
2016-10-16T04:23:24.854Z,0
2016-10-16T04:24:24.849Z,0
2016-10-16T04:25:24.890Z,0
2016-10-16T04:26:24.929Z,0
2016-10-16T04:27:24.912Z,0
2016-10-16T04:28:24.927Z,0
2016-10-16T04:29:24.944Z,0
2016-10-16T04:30:24.974Z,0
2016-10-16T04:31:24.979Z,0
2016-10-16T04:32:25.000Z,0
2016-10-16T04:33:25.239Z,0
2016-10-16T04:34:25.036Z,0
2016-10-16T04:35:25.046Z,0
2016-10-16T04:36:25.074Z,0
2016-10-16T04:37:25.088Z,0
2016-10-16T04:38:25.105Z,0
2016-10-16T04:39:25.129Z,0
2016-10-16T04:40:25.145Z,0
2016-10-16T04:41:25.173Z,0
2016-10-16T04:42:25.178Z,0
2016-10-16T04:43:25.204Z,0
2016-10-16T04:44:25.220Z,0
2016-10-16T04:45:25.238Z,0
2016-10-16T04:46:25.266Z,0
2016-10-16T04:47:25.278Z,0
2016-10-16T04:48:25.295Z,0
2016-10-16T04:49:25.312Z,0
2016-10-16T04:50:25.348Z,0
2016-10-16T04:51:25.350Z,0
2016-10-16T04:52:25.371Z,0
2016-10-16T04:53:25.386Z,0
2016-10-16T04:54:25.414Z,0
2016-10-16T04:55:25.445Z,0
2016-10-16T04:56:25.444Z,0
2016-10-16T04:57:25.787Z,0
2016-10-16T04:58:25.485Z,0
2016-10-16T04:59:25.497Z,0
2016-10-16T05:00:25.521Z,0
2016-10-16T05:01:25.534Z,0
2016-10-16T05:02:25.547Z,0
2016-10-16T05:03:25.572Z,0
2016-10-16T05:04:25.593Z,0
2016-10-16T05:05:25.615Z,0
2016-10-16T05:06:25.627Z,0
2016-10-16T05:07:25.649Z,0
2016-10-16T05:08:25.665Z,0
2016-10-16T05:09:25.687Z,0
2016-10-16T05:10:25.711Z,0
2016-10-16T05:11:25.725Z,0
2016-10-16T05:12:25.741Z,0
2016-10-16T05:13:25.761Z,0
2016-10-16T05:14:25.778Z,0
2016-10-16T05:15:25.793Z,0
2016-10-16T05:16:25.824Z,0
2016-10-16T05:17:25.830Z,0
2016-10-16T05:18:25.852Z,4
2016-10-16T05:19:25.873Z,4
2016-10-16T05:20:25.893Z,4
2016-10-16T05:21:25.908Z,4
2016-10-16T05:22:25.924Z,4
2016-10-16T05:23:25.939Z,4
2016-10-16T05:24:26.079Z,8
2016-10-16T05:25:26.089Z,4
2016-10-16T05:26:26.109Z,8
2016-10-16T05:27:26.098Z,8
2016-10-16T05:28:26.117Z,8
2016-10-16T05:29:26.145Z,12
2016-10-16T05:30:26.300Z,12
2016-10-16T05:31:26.310Z,12
2016-10-16T05:32:26.317Z,16
2016-10-16T05:33:26.332Z,16
2016-10-16T05:34:26.231Z,16
2016-10-16T05:35:26.374Z,20
2016-10-16T05:36:26.384Z,24
2016-10-16T05:37:26.391Z,24
2016-10-16T05:38:26.394Z,28
2016-10-16T05:39:26.406Z,28
2016-10-16T05:40:26.413Z,32
2016-10-16T05:41:26.421Z,36
2016-10-16T05:42:26.429Z,36
2016-10-16T05:43:26.438Z,36
2016-10-16T05:44:26.437Z,44
2016-10-16T05:45:26.453Z,44
2016-10-16T05:46:26.673Z,48
2016-10-16T05:47:26.427Z,48
2016-10-16T05:48:26.429Z,52
2016-10-16T05:49:26.440Z,56
2016-10-16T05:50:26.447Z,60
2016-10-16T05:51:26.464Z,64
2016-10-16T05:52:26.478Z,64
2016-10-16T05:53:26.494Z,68
2016-10-16T05:54:26.514Z,72
2016-10-16T05:55:26.533Z,80
2016-10-16T05:56:26.544Z,80
2016-10-16T05:57:26.571Z,84
2016-10-16T05:58:26.594Z,88
2016-10-16T05:59:26.598Z,92
2016-10-16T06:00:26.617Z,96
2016-10-16T06:01:26.635Z,100
2016-10-16T06:02:26.651Z,104
2016-10-16T06:03:26.670Z,104
2016-10-16T06:04:27.135Z,108
2016-10-16T06:05:26.710Z,108
2016-10-16T06:06:26.720Z,108
2016-10-16T06:07:26.744Z,112
2016-10-16T06:08:26.753Z,112
2016-10-16T06:09:26.781Z,120
2016-10-16T06:10:26.807Z,124
2016-10-16T06:11:26.827Z,132
2016-10-16T06:12:26.841Z,144
2016-10-16T06:13:26.975Z,148
2016-10-16T06:14:26.876Z,152
2016-10-16T06:15:26.952Z,152
2016-10-16T06:16:26.945Z,156
2016-10-16T06:17:26.955Z,160
2016-10-16T06:18:26.962Z,164
2016-10-16T06:19:26.977Z,164
2016-10-16T06:20:26.984Z,172
2016-10-16T06:21:27.123Z,176
2016-10-16T06:22:27.132Z,180
2016-10-16T06:23:27.130Z,184
2016-10-16T06:24:27.165Z,180
2016-10-16T06:25:27.174Z,184
2016-10-16T06:26:27.184Z,184
2016-10-16T06:27:27.189Z,192
2016-10-16T06:28:27.204Z,196
2016-10-16T06:29:27.282Z,200
2016-10-16T06:30:27.247Z,204
2016-10-16T06:31:27.530Z,208
2016-10-16T06:32:27.256Z,212
2016-10-16T06:33:27.264Z,216
2016-10-16T06:34:27.276Z,216
2016-10-16T06:35:27.283Z,216
2016-10-16T06:36:27.283Z,212
2016-10-16T06:37:27.289Z,216
2016-10-16T06:38:27.310Z,212
2016-10-16T06:39:27.319Z,216
2016-10-16T06:40:27.337Z,216
2016-10-16T06:41:27.360Z,216
2016-10-16T06:42:27.372Z,220
2016-10-16T06:43:27.393Z,224
2016-10-16T06:44:27.421Z,224
2016-10-16T06:45:27.428Z,224
2016-10-16T06:46:27.455Z,224
2016-10-16T06:47:27.470Z,228
2016-10-16T06:48:27.483Z,228
2016-10-16T06:49:27.503Z,232
2016-10-16T06:50:27.527Z,232
2016-10-16T06:51:27.550Z,232
2016-10-16T06:52:27.560Z,236
2016-10-16T06:53:27.593Z,232
2016-10-16T06:54:27.592Z,236
2016-10-16T06:55:27.615Z,236
2016-10-16T06:56:27.630Z,240
2016-10-16T06:57:27.663Z,240
2016-10-16T06:58:27.671Z,244
2016-10-16T06:59:27.683Z,244
2016-10-16T07:00:27.707Z,248
2016-10-16T07:01:27.723Z,248
2016-10-16T07:02:27.733Z,244
2016-10-16T07:03:27.862Z,248
2016-10-16T07:04:27.872Z,248
2016-10-16T07:05:27.906Z,252
2016-10-16T07:06:27.907Z,252
2016-10-16T07:07:27.913Z,252
2016-10-16T07:08:27.927Z,252
2016-10-16T07:09:27.931Z,256
2016-10-16T07:10:27.939Z,256
2016-10-16T07:11:27.941Z,256
2016-10-16T07:12:27.949Z,260
2016-10-16T07:13:27.957Z,260
2016-10-16T07:14:27.965Z,260
2016-10-16T07:15:27.980Z,260
2016-10-16T07:16:28.005Z,264
2016-10-16T07:17:28.326Z,264
2016-10-16T07:18:28.020Z,264
2016-10-16T07:19:28.051Z,268
2016-10-16T07:20:28.066Z,268
2016-10-16T07:21:28.403Z,272
2016-10-16T07:22:28.099Z,268
2016-10-16T07:23:28.121Z,268
2016-10-16T07:24:28.141Z,272
2016-10-16T07:25:28.156Z,272
2016-10-16T07:26:28.178Z,272
2016-10-16T07:27:28.193Z,272
2016-10-16T07:28:28.210Z,276
2016-10-16T07:29:28.220Z,276
2016-10-16T07:30:28.246Z,276
2016-10-16T07:31:28.264Z,276
2016-10-16T07:32:28.284Z,276
2016-10-16T07:33:28.312Z,280
2016-10-16T07:34:28.312Z,280
2016-10-16T07:35:28.348Z,284
2016-10-16T07:36:28.358Z,280
2016-10-16T07:37:28.381Z,284
2016-10-16T07:38:28.408Z,284
2016-10-16T07:39:28.416Z,288
2016-10-16T07:40:28.430Z,284
2016-10-16T07:41:28.457Z,288
2016-10-16T07:42:28.477Z,288
2016-10-16T07:43:28.879Z,292
2016-10-16T07:44:28.496Z,292
2016-10-16T07:45:28.525Z,292
2016-10-16T07:46:28.531Z,296
2016-10-16T07:47:28.565Z,296
2016-10-16T07:48:28.570Z,296
2016-10-16T07:49:28.595Z,300
2016-10-16T07:50:28.611Z,300
2016-10-16T07:51:28.629Z,300
2016-10-16T07:52:28.653Z,300
2016-10-16T07:53:28.658Z,304
2016-10-16T07:54:28.685Z,300
2016-10-16T07:55:28.838Z,300
2016-10-16T07:56:28.838Z,300
2016-10-16T07:57:28.847Z,304
2016-10-16T07:58:28.856Z,308
2016-10-16T07:59:28.864Z,308
2016-10-16T08:00:28.898Z,308
2016-10-16T08:01:28.898Z,312
2016-10-16T08:02:28.906Z,308
2016-10-16T08:03:28.915Z,312
2016-10-16T08:04:28.924Z,312
2016-10-16T08:05:28.983Z,316
2016-10-16T08:06:28.993Z,316
2016-10-16T08:07:29.002Z,316
2016-10-16T08:08:29.010Z,320
2016-10-16T08:09:29.020Z,320
2016-10-16T08:10:29.017Z,324
2016-10-16T08:11:29.027Z,324
2016-10-16T08:12:29.035Z,328
2016-10-16T08:13:29.046Z,332
2016-10-16T08:14:29.053Z,332
2016-10-16T08:15:29.241Z,332
2016-10-16T08:16:29.175Z,332
2016-10-16T08:17:29.185Z,332
2016-10-16T08:18:29.132Z,332
2016-10-16T08:19:29.149Z,332
2016-10-16T08:20:29.159Z,336
2016-10-16T08:21:29.492Z,340
2016-10-16T08:22:29.198Z,344
2016-10-16T08:23:29.228Z,340
2016-10-16T08:24:29.238Z,340
2016-10-16T08:25:29.263Z,340
2016-10-16T08:26:29.273Z,340
2016-10-16T08:27:29.292Z,336
2016-10-16T08:28:29.323Z,340
2016-10-16T08:29:29.352Z,340
2016-10-16T08:30:29.371Z,340
2016-10-16T08:31:29.372Z,340
2016-10-16T08:32:29.395Z,340
2016-10-16T08:33:29.420Z,344
2016-10-16T08:34:29.431Z,344
2016-10-16T08:35:29.448Z,344
2016-10-16T08:36:29.789Z,344
2016-10-16T08:37:29.489Z,344
2016-10-16T08:38:29.508Z,340
2016-10-16T08:39:29.534Z,344
2016-10-16T08:40:29.543Z,344
2016-10-16T08:41:29.569Z,344
2016-10-16T08:42:29.896Z,344
2016-10-16T08:43:29.612Z,348
2016-10-16T08:44:29.627Z,352
2016-10-16T08:45:29.640Z,352
2016-10-16T08:46:30.023Z,360
2016-10-16T08:47:29.682Z,356
2016-10-16T08:48:29.701Z,360
2016-10-16T08:49:29.724Z,360
2016-10-16T08:50:29.734Z,360
2016-10-16T08:51:29.756Z,360
2016-10-16T08:52:29.781Z,364
2016-10-16T08:53:29.797Z,372
2016-10-16T08:54:29.813Z,384
2016-10-16T08:55:29.836Z,400
2016-10-16T08:56:29.855Z,388
2016-10-16T08:57:29.878Z,380
2016-10-16T08:58:29.888Z,368
2016-10-16T08:59:29.912Z,372
2016-10-16T09:00:29.931Z,376
2016-10-16T09:01:29.976Z,372
2016-10-16T09:02:29.970Z,372
2016-10-16T09:03:29.989Z,368
2016-10-16T09:04:30.005Z,364
2016-10-16T09:05:30.029Z,364
2016-10-16T09:06:30.050Z,368
2016-10-16T09:07:30.158Z,368
2016-10-16T09:08:30.084Z,372
2016-10-16T09:09:30.104Z,376
2016-10-16T09:10:30.130Z,380
2016-10-16T09:11:30.149Z,388
2016-10-16T09:12:30.164Z,396
2016-10-16T09:13:30.202Z,404
2016-10-16T09:14:30.207Z,420
2016-10-16T09:15:30.223Z,444
2016-10-16T09:16:30.557Z,456
2016-10-16T09:17:30.277Z,484
2016-10-16T09:18:30.286Z,476
2016-10-16T09:19:30.303Z,468
2016-10-16T09:20:30.328Z,448
2016-10-16T09:21:30.351Z,396
2016-10-16T09:22:30.361Z,420
2016-10-16T09:23:30.803Z,424
2016-10-16T09:24:30.404Z,424
2016-10-16T09:25:30.422Z,424
2016-10-16T09:26:30.496Z,424
2016-10-16T09:27:30.472Z,424
2016-10-16T09:28:30.490Z,432
2016-10-16T09:29:30.511Z,432
2016-10-16T09:30:30.526Z,440
2016-10-16T09:31:30.553Z,440
2016-10-16T09:32:30.569Z,448
2016-10-16T09:33:30.586Z,448
2016-10-16T09:34:30.608Z,456
2016-10-16T09:35:30.630Z,460
2016-10-16T09:36:30.763Z,464
2016-10-16T09:37:30.771Z,464
2016-10-16T09:38:30.806Z,468
2016-10-16T09:39:30.717Z,452
2016-10-16T09:40:30.733Z,464
2016-10-16T09:41:30.756Z,468
2016-10-16T09:42:30.782Z,468
2016-10-16T09:43:30.796Z,472
2016-10-16T09:44:31.356Z,480
2016-10-16T09:45:30.855Z,488
2016-10-16T09:46:30.856Z,492
2016-10-16T09:47:31.498Z,492
2016-10-16T09:48:30.895Z,496
2016-10-16T09:49:30.930Z,500
2016-10-16T09:50:30.932Z,504
2016-10-16T09:51:30.958Z,500
2016-10-16T09:52:30.989Z,516
2016-10-16T09:53:31.008Z,516
2016-10-16T09:54:31.021Z,512
2016-10-16T09:55:31.366Z,524
2016-10-16T09:56:31.067Z,528
2016-10-16T09:57:31.084Z,528
2016-10-16T09:58:31.108Z,532
2016-10-16T09:59:31.121Z,536
2016-10-16T10:00:31.160Z,540
2016-10-16T10:01:31.222Z,548
2016-10-16T10:02:31.187Z,544
2016-10-16T10:03:31.218Z,548
2016-10-16T10:04:31.233Z,552
2016-10-16T10:05:31.251Z,560
2016-10-16T10:06:31.270Z,568
2016-10-16T10:07:31.292Z,576
2016-10-16T10:08:31.305Z,576
2016-10-16T10:09:31.332Z,580
2016-10-16T10:10:31.355Z,588
2016-10-16T10:11:31.375Z,608
2016-10-16T10:12:31.394Z,552
2016-10-16T10:13:31.418Z,492
2016-10-16T10:14:31.440Z,624
2016-10-16T10:15:31.453Z,628
2016-10-16T10:16:31.500Z,624
2016-10-16T10:17:31.520Z,624
2016-10-16T10:18:31.527Z,572
2016-10-16T10:19:31.548Z,496
2016-10-16T10:20:31.684Z,496
2016-10-16T10:21:31.691Z,568
2016-10-16T10:22:31.716Z,660
2016-10-16T10:23:31.724Z,656
2016-10-16T10:24:31.731Z,584
2016-10-16T10:25:31.740Z,660
2016-10-16T10:26:31.749Z,528
2016-10-16T10:27:31.808Z,684
2016-10-16T10:28:31.817Z,664
2016-10-16T10:29:31.940Z,680
2016-10-16T10:30:31.834Z,648
2016-10-16T10:31:31.834Z,652
2016-10-16T10:32:31.841Z,580
2016-10-16T10:33:31.852Z,648
2016-10-16T10:34:31.974Z,636
2016-10-16T10:35:31.988Z,560
2016-10-16T10:36:31.982Z,536
2016-10-16T10:37:31.997Z,608
2016-10-16T10:38:31.943Z,776
2016-10-16T10:39:31.970Z,788
2016-10-16T10:40:31.993Z,800
2016-10-16T10:41:32.532Z,800
2016-10-16T10:42:32.031Z,800
2016-10-16T10:43:32.061Z,820
2016-10-16T10:44:32.081Z,804
2016-10-16T10:45:32.108Z,784
2016-10-16T10:46:32.126Z,780
2016-10-16T10:47:32.147Z,628
2016-10-16T10:48:32.179Z,656
2016-10-16T10:49:32.201Z,588
2016-10-16T10:50:32.215Z,536
2016-10-16T10:51:32.233Z,524
2016-10-16T10:52:32.257Z,552
2016-10-16T10:53:32.706Z,560
2016-10-16T10:54:32.306Z,628
2016-10-16T10:55:32.319Z,708
2016-10-16T10:56:32.339Z,764
2016-10-16T10:57:32.373Z,776
2016-10-16T10:58:32.388Z,744
2016-10-16T10:59:32.419Z,860
2016-10-16T11:00:32.423Z,1112
2016-10-16T11:01:32.468Z,1112
2016-10-16T11:02:32.476Z,1152
2016-10-16T11:03:32.502Z,1148
2016-10-16T11:04:32.515Z,1256
2016-10-16T11:05:32.544Z,1452
2016-10-16T11:06:32.680Z,1792
2016-10-16T11:07:32.829Z,2164
2016-10-16T11:08:32.828Z,2084
2016-10-16T11:09:32.839Z,1896
2016-10-16T11:10:32.851Z,1856
2016-10-16T11:11:32.850Z,1808
2016-10-16T11:12:32.858Z,1820
2016-10-16T11:13:32.867Z,1696
2016-10-16T11:14:32.877Z,1452
2016-10-16T11:15:32.893Z,1488
2016-10-16T11:16:32.893Z,1460
2016-10-16T11:17:32.893Z,1400
2016-10-16T11:18:33.037Z,1276
2016-10-16T11:19:33.046Z,1144
2016-10-16T11:20:32.959Z,1044
2016-10-16T11:21:32.990Z,1036
2016-10-16T11:22:33.007Z,1196
2016-10-16T11:23:33.042Z,1332
2016-10-16T11:24:33.052Z,1256
2016-10-16T11:25:33.051Z,1208
2016-10-16T11:26:33.062Z,1140
2016-10-16T11:27:33.071Z,1012
2016-10-16T11:28:33.081Z,824
2016-10-16T11:29:33.086Z,860
2016-10-16T11:30:33.104Z,636
2016-10-16T11:31:33.121Z,576
2016-10-16T11:32:33.141Z,636
2016-10-16T11:33:33.184Z,716
2016-10-16T11:34:33.192Z,924
2016-10-16T11:35:33.212Z,1124
2016-10-16T11:36:33.233Z,1156
2016-10-16T11:37:33.256Z,1068
2016-10-16T11:38:33.281Z,1172
2016-10-16T11:39:33.305Z,1392
2016-10-16T11:40:33.326Z,1512
2016-10-16T11:41:33.349Z,1364
2016-10-16T11:42:33.370Z,1244
2016-10-16T11:43:33.394Z,1168
2016-10-16T11:44:33.416Z,1200
2016-10-16T11:45:33.450Z,1340
2016-10-16T11:46:33.464Z,1616
2016-10-16T11:47:33.485Z,1764
2016-10-16T11:48:33.507Z,1820
2016-10-16T11:49:33.530Z,1852
2016-10-16T11:50:33.553Z,1912
2016-10-16T11:51:33.584Z,1852
2016-10-16T11:52:33.598Z,1820
2016-10-16T11:53:33.756Z,1576
2016-10-16T11:54:33.652Z,1488
2016-10-16T11:55:34.007Z,1380
2016-10-16T11:56:33.696Z,1252
2016-10-16T11:57:33.730Z,1128
2016-10-16T11:58:33.755Z,992
2016-10-16T11:59:34.092Z,1048
2016-10-16T12:00:33.783Z,976
2016-10-16T12:01:33.810Z,1096
2016-10-16T12:02:33.831Z,1208
2016-10-16T12:03:33.855Z,1364
2016-10-16T12:04:33.880Z,1508
2016-10-16T12:05:33.900Z,1636
2016-10-16T12:06:33.941Z,1756
2016-10-16T12:07:33.950Z,1812
2016-10-16T12:08:33.974Z,1892
2016-10-16T12:09:34.005Z,1944
2016-10-16T12:10:34.013Z,2028
2016-10-16T12:11:34.044Z,2104
2016-10-16T12:12:34.061Z,2000
2016-10-16T12:13:34.407Z,1840
2016-10-16T12:14:34.109Z,1776
2016-10-16T12:15:34.139Z,1696
2016-10-16T12:16:34.156Z,1664
2016-10-16T12:17:34.185Z,1680
2016-10-16T12:18:34.201Z,1628
2016-10-16T12:19:34.223Z,1556
2016-10-16T12:20:34.251Z,1428
2016-10-16T12:21:34.272Z,1336
2016-10-16T12:22:34.611Z,1356
2016-10-16T12:23:34.320Z,1360
2016-10-16T12:24:34.349Z,1248
2016-10-16T12:25:34.374Z,1132
2016-10-16T12:26:34.392Z,1036
2016-10-16T12:27:34.418Z,1104
2016-10-16T12:28:34.437Z,1140
2016-10-16T12:29:34.461Z,1192
2016-10-16T12:30:34.491Z,1236
2016-10-16T12:31:34.512Z,1148
2016-10-16T12:32:34.532Z,888
2016-10-16T12:33:34.556Z,752
2016-10-16T12:34:34.583Z,712
2016-10-16T12:35:34.716Z,664
2016-10-16T12:36:34.741Z,616
2016-10-16T12:37:34.875Z,640
2016-10-16T12:38:34.883Z,700
2016-10-16T12:39:34.887Z,680
2016-10-16T12:40:34.900Z,596
2016-10-16T12:41:34.905Z,584
2016-10-16T12:42:34.913Z,612
2016-10-16T12:43:35.132Z,672
2016-10-16T12:44:34.925Z,732
2016-10-16T12:45:35.067Z,700
2016-10-16T12:46:35.072Z,660
2016-10-16T12:47:35.397Z,592
2016-10-16T12:48:35.091Z,572
2016-10-16T12:49:35.108Z,576
2016-10-16T12:50:35.045Z,580
2016-10-16T12:51:35.103Z,576
2016-10-16T12:52:35.089Z,576
2016-10-16T12:53:35.087Z,600
2016-10-16T12:54:35.097Z,636
2016-10-16T12:55:35.104Z,664
2016-10-16T12:56:35.114Z,684
2016-10-16T12:57:35.128Z,684
2016-10-16T12:58:35.152Z,660
2016-10-16T12:59:35.175Z,604
2016-10-16T13:00:35.200Z,556
2016-10-16T13:01:35.221Z,540
2016-10-16T13:02:35.250Z,540
2016-10-16T13:03:35.271Z,544
2016-10-16T13:04:35.609Z,548
2016-10-16T13:05:35.325Z,552
2016-10-16T13:06:35.641Z,560
2016-10-16T13:07:35.631Z,568
2016-10-16T13:08:36.180Z,580
2016-10-16T13:09:35.852Z,584
2016-10-16T13:10:36.099Z,580
2016-10-16T13:11:35.472Z,592
2016-10-16T13:12:35.489Z,612
2016-10-16T13:13:35.516Z,620
2016-10-16T13:14:35.555Z,604
2016-10-16T13:15:35.570Z,588
2016-10-16T13:16:35.584Z,592
2016-10-16T13:17:35.611Z,616
2016-10-16T13:18:35.630Z,736
2016-10-16T13:19:35.655Z,824
2016-10-16T13:20:35.680Z,824
2016-10-16T13:21:35.709Z,832
2016-10-16T13:22:35.744Z,900
2016-10-16T13:23:36.069Z,988
2016-10-16T13:24:35.778Z,940
2016-10-16T13:25:35.799Z,904
2016-10-16T13:26:35.823Z,784
2016-10-16T13:27:35.853Z,644
2016-10-16T13:28:35.877Z,544
2016-10-16T13:29:35.904Z,496
2016-10-16T13:30:35.921Z,496
2016-10-16T13:31:35.947Z,516
2016-10-16T13:32:35.969Z,536
2016-10-16T13:33:35.996Z,548
2016-10-16T13:34:36.035Z,536
2016-10-16T13:35:36.060Z,536
2016-10-16T13:36:36.065Z,548
2016-10-16T13:37:36.089Z,544
2016-10-16T13:38:36.110Z,524
2016-10-16T13:39:36.137Z,512
2016-10-16T13:40:36.163Z,504
2016-10-16T13:41:36.511Z,504
2016-10-16T13:42:36.210Z,504
2016-10-16T13:43:36.235Z,500
2016-10-16T13:44:36.274Z,496
2016-10-16T13:45:36.609Z,500
2016-10-16T13:46:36.310Z,492
2016-10-16T13:47:36.335Z,480
2016-10-16T13:48:36.357Z,472
2016-10-16T13:49:36.381Z,464
2016-10-16T13:50:36.404Z,460
2016-10-16T13:51:36.428Z,444
2016-10-16T13:52:36.451Z,440
2016-10-16T13:53:36.495Z,496
2016-10-16T13:54:36.504Z,484
2016-10-16T13:55:36.530Z,516
2016-10-16T13:56:36.549Z,524
2016-10-16T13:57:36.578Z,524
2016-10-16T13:58:36.594Z,540
2016-10-16T13:59:36.624Z,544
2016-10-16T14:00:36.647Z,544
2016-10-16T14:01:36.681Z,484
2016-10-16T14:02:36.704Z,452
2016-10-16T14:03:36.731Z,452
2016-10-16T14:04:36.748Z,460
2016-10-16T14:05:36.770Z,468
2016-10-16T14:06:36.803Z,488